Grand Island, California
Current Conditions -  °F | °C
As of 1:58 PM on Monday 20 Oct 2014 (Local Time) from KSUU Reporting Station
Broken Clouds Broken Clouds  
Wind Chill: 70°   Ceiling: 4800
Heat Index: 70°   Visibility: 10mi
Dew Point: 52°   Wind: 13mph
Humidity: 53%   Direction: 250°WSW
Pressure: 29.93"   Gusts: NA
Location:  38.2298°N, 121.579°W
Report Text: KSUU 202058Z AUTO 25011KT 10SM SCT041 BKN048 21/11 A2993 RMK AO2 CIG 036 RWY03R SLP142 T02110113 58001 $
Loading
Personal Weather Stations






























Interactive Weather Map
Tropical Storm Tracking
New forecast layout! Learn more

10-Day Weather Forecast

Advertisements
Track Severe Weather on mobile